createdAt,value
2022-07-29T00:03:01.345Z,14.86
2022-07-29T00:06:05.403Z,14.80
2022-07-29T00:09:08.578Z,14.90
2022-07-29T00:12:11.292Z,14.92
2022-07-29T00:15:14.226Z,14.75
2022-07-29T00:18:16.864Z,14.88
2022-07-29T00:21:20.851Z,14.92
2022-07-29T00:24:23.451Z,14.81
2022-07-29T00:27:26.102Z,14.83
2022-07-29T00:30:28.694Z,14.78
2022-07-29T00:33:31.506Z,14.83
2022-07-29T00:36:34.486Z,14.72
2022-07-29T00:39:37.104Z,14.65
2022-07-29T00:42:44.567Z,14.65
2022-07-29T00:45:47.231Z,14.58
2022-07-29T00:48:49.854Z,14.47
2022-07-29T00:51:54.358Z,14.47
2022-07-29T00:54:58.210Z,14.52
2022-07-29T00:58:01.488Z,14.35
2022-07-29T01:01:04.202Z,14.38
2022-07-29T01:04:08.374Z,14.44
2022-07-29T01:07:13.051Z,14.31
2022-07-29T01:10:17.170Z,14.36
2022-07-29T01:13:20.822Z,14.37
2022-07-29T01:16:32.219Z,14.20
2022-07-29T01:19:49.697Z,14.14
2022-07-29T01:23:15.523Z,14.14
2022-07-29T01:26:33.833Z,14.05
2022-07-29T01:29:41.146Z,14.11
2022-07-29T01:32:46.931Z,14.17
2022-07-29T01:35:49.606Z,14.33
2022-07-29T01:38:59.899Z,14.24
2022-07-29T01:42:09.456Z,14.28
2022-07-29T01:45:18.016Z,14.21
2022-07-29T01:48:25.109Z,14.28
2022-07-29T01:51:33.662Z,14.23
2022-07-29T01:54:43.786Z,14.38
2022-07-29T01:57:51.306Z,14.32
2022-07-29T02:00:58.001Z,14.34
2022-07-29T02:04:04.192Z,14.30
2022-07-29T02:07:09.022Z,14.18
2022-07-29T02:10:13.909Z,14.37
2022-07-29T02:13:18.814Z,14.30
2022-07-29T02:16:24.613Z,14.34
2022-07-29T02:19:28.924Z,14.29
2022-07-29T02:22:33.478Z,14.34
2022-07-29T02:25:37.657Z,14.34
2022-07-29T02:28:42.051Z,14.37
2022-07-29T02:31:48.214Z,14.27
2022-07-29T02:34:52.260Z,14.28
2022-07-29T02:38:09.762Z,14.38
2022-07-29T02:41:15.404Z,14.34
2022-07-29T02:44:20.562Z,14.31
2022-07-29T02:47:29.786Z,14.42
2022-07-29T02:50:36.734Z,14.35
2022-07-29T02:53:40.709Z,14.41
2022-07-29T02:56:46.278Z,14.42
2022-07-29T02:59:51.914Z,14.46
2022-07-29T03:02:58.613Z,14.46
2022-07-29T03:06:02.994Z,14.49
2022-07-29T03:09:12.017Z,14.44
2022-07-29T03:12:16.654Z,14.49
2022-07-29T03:15:20.235Z,14.62
2022-07-29T03:18:24.454Z,14.53
2022-07-29T03:21:27.112Z,14.54
2022-07-29T03:24:32.298Z,14.64
2022-07-29T03:27:34.946Z,14.60
2022-07-29T03:30:37.626Z,14.52
2022-07-29T03:33:42.912Z,14.55
2022-07-29T03:36:45.714Z,14.68
2022-07-29T03:39:51.079Z,14.77
2022-07-29T03:42:56.054Z,14.74
2022-07-29T03:46:02.073Z,14.77
2022-07-29T03:49:09.053Z,14.73
2022-07-29T03:52:11.951Z,14.76
2022-07-29T03:55:15.427Z,14.85
2022-07-29T03:58:19.215Z,14.82
2022-07-29T04:01:23.139Z,14.83
2022-07-29T04:04:27.445Z,14.79
2022-07-29T04:07:31.370Z,14.91
2022-07-29T04:10:35.779Z,14.82
2022-07-29T04:13:38.531Z,14.95
2022-07-29T04:16:41.111Z,15.01
2022-07-29T04:19:45.074Z,15.00
2022-07-29T04:22:47.680Z,14.98
2022-07-29T04:25:50.277Z,15.05
2022-07-29T04:28:52.903Z,15.13
2022-07-29T04:31:55.510Z,15.10
2022-07-29T04:34:59.449Z,15.18
2022-07-29T04:38:03.050Z,15.28
2022-07-29T04:41:05.766Z,15.18
2022-07-29T04:44:09.034Z,15.27
2022-07-29T04:47:11.873Z,15.33
2022-07-29T04:50:15.814Z,15.38
2022-07-29T04:53:18.429Z,15.51
2022-07-29T04:56:21.193Z,15.50
2022-07-29T04:59:23.817Z,15.59
2022-07-29T05:02:26.443Z,15.54
2022-07-29T05:05:30.405Z,15.69
2022-07-29T05:08:32.962Z,15.60
2022-07-29T05:11:35.544Z,15.77
2022-07-29T05:14:38.140Z,15.73
2022-07-29T05:17:40.786Z,15.85
2022-07-29T05:20:44.770Z,15.91
2022-07-29T05:23:47.356Z,15.97
2022-07-29T05:26:49.974Z,16.09
2022-07-29T05:29:52.796Z,16.13
2022-07-29T05:32:55.394Z,16.23
2022-07-29T05:36:00.777Z,16.21
2022-07-29T05:39:03.883Z,16.30
2022-07-29T05:42:10.353Z,16.37
2022-07-29T05:45:13.014Z,16.30
2022-07-29T05:48:15.617Z,16.34
2022-07-29T05:51:19.587Z,16.47
2022-07-29T05:54:22.128Z,16.66
2022-07-29T05:57:25.989Z,16.70
2022-07-29T06:00:28.649Z,16.77
2022-07-29T06:03:32.187Z,17.02
2022-07-29T06:06:36.402Z,17.08
2022-07-29T06:09:39.131Z,17.24
2022-07-29T06:12:41.818Z,17.37
2022-07-29T06:15:44.858Z,17.26
2022-07-29T06:18:47.515Z,17.44
2022-07-29T06:21:51.506Z,17.50
2022-07-29T06:24:54.506Z,17.42
2022-07-29T06:27:57.045Z,17.55
2022-07-29T06:30:59.691Z,17.69
2022-07-29T06:34:02.402Z,17.66
2022-07-29T06:37:15.643Z,17.75
2022-07-29T06:40:47.256Z,17.66
2022-07-29T06:43:55.449Z,17.87
2022-07-29T06:46:59.556Z,17.96
2022-07-29T06:50:02.157Z,17.94
2022-07-29T06:53:06.799Z,18.04
2022-07-29T06:56:10.098Z,18.05
2022-07-29T06:59:13.678Z,18.28
2022-07-29T07:02:16.312Z,18.21
2022-07-29T07:05:19.046Z,18.28
2022-07-29T07:08:24.559Z,18.39
2022-07-29T07:11:27.192Z,18.45
2022-07-29T07:14:29.755Z,18.60
2022-07-29T07:17:32.378Z,18.63
2022-07-29T07:20:35.001Z,18.71
2022-07-29T07:23:39.325Z,18.64
2022-07-29T07:26:41.909Z,18.70
2022-07-29T07:29:44.545Z,18.76
2022-07-29T07:32:47.178Z,18.82
2022-07-29T07:35:49.788Z,18.88
2022-07-29T07:38:53.735Z,18.90
2022-07-29T07:41:56.342Z,19.04
2022-07-29T07:45:12.999Z,19.17
2022-07-29T07:48:16.384Z,19.35
2022-07-29T07:51:18.999Z,19.60
2022-07-29T07:54:22.940Z,19.87
2022-07-29T07:57:25.588Z,19.93
2022-07-29T08:00:28.226Z,20.12
2022-07-29T08:03:30.902Z,20.25
2022-07-29T08:06:35.750Z,20.29
2022-07-29T08:09:39.681Z,20.38
2022-07-29T08:12:42.361Z,20.34
2022-07-29T08:15:46.431Z,20.37
2022-07-29T08:18:49.792Z,20.64
2022-07-29T08:21:54.474Z,20.87
2022-07-29T08:24:58.766Z,20.98
2022-07-29T08:28:01.347Z,21.02
2022-07-29T08:31:04.121Z,21.10
2022-07-29T08:34:07.419Z,21.16
2022-07-29T08:37:10.015Z,21.40
2022-07-29T08:40:15.047Z,21.71
2022-07-29T08:43:17.664Z,21.91
2022-07-29T08:46:21.347Z,22.08
2022-07-29T08:49:24.001Z,22.08
2022-07-29T08:52:28.405Z,22.00
2022-07-29T08:55:32.542Z,22.12
2022-07-29T08:58:36.827Z,22.11
2022-07-29T09:01:44.347Z,22.66
2022-07-29T09:04:49.161Z,23.06
2022-07-29T09:07:52.332Z,23.15
2022-07-29T09:10:57.597Z,23.30
2022-07-29T09:14:00.404Z,23.18
2022-07-29T09:17:03.237Z,23.31
2022-07-29T09:20:11.564Z,23.44
2022-07-29T09:23:23.307Z,23.39
2022-07-29T09:26:31.812Z,23.27
2022-07-29T09:29:36.224Z,23.32
2022-07-29T09:32:58.192Z,23.56
2022-07-29T09:36:01.834Z,23.63
2022-07-29T09:39:05.248Z,23.66
2022-07-29T09:42:09.269Z,23.73
2022-07-29T09:45:13.117Z,23.75
2022-07-29T09:48:17.703Z,23.82
2022-07-29T09:51:25.452Z,23.91
2022-07-29T09:54:37.554Z,23.67
2022-07-29T09:57:41.831Z,23.74
2022-07-29T10:00:45.392Z,23.93
2022-07-29T10:03:54.746Z,23.94
2022-07-29T10:07:04.487Z,23.99
2022-07-29T10:10:08.556Z,23.99
2022-07-29T10:13:16.212Z,24.06
2022-07-29T10:16:19.246Z,24.06
2022-07-29T10:19:22.407Z,23.90
2022-07-29T10:22:50.786Z,23.84
2022-07-29T10:25:47.878Z,23.98
2022-07-29T10:28:51.802Z,24.00
2022-07-29T10:32:08.191Z,23.92
2022-07-29T10:35:35.384Z,23.94
2022-07-29T10:38:49.187Z,24.07
2022-07-29T10:42:07.445Z,24.14
2022-07-29T10:45:13.250Z,24.33
2022-07-29T10:48:17.591Z,24.57
2022-07-29T10:51:21.824Z,24.85
2022-07-29T10:54:48.531Z,25.04
2022-07-29T10:58:13.037Z,25.77
2022-07-29T11:01:37.678Z,25.96
2022-07-29T11:05:01.290Z,26.51
2022-07-29T11:08:27.808Z,26.75
2022-07-29T11:11:58.363Z,27.01
2022-07-29T11:15:03.638Z,27.19
2022-07-29T11:18:15.028Z,27.08
2022-07-29T11:21:53.798Z,26.92
2022-07-29T11:25:16.796Z,26.99
2022-07-29T11:28:25.326Z,26.77
2022-07-29T11:31:37.321Z,26.67
2022-07-29T11:34:41.627Z,26.70
2022-07-29T11:37:52.149Z,26.74
2022-07-29T11:41:27.277Z,26.65
2022-07-29T11:44:57.654Z,26.67
2022-07-29T11:48:27.957Z,25.55
2022-07-29T11:51:32.991Z,26.46
2022-07-29T11:54:52.124Z,26.91
2022-07-29T11:58:04.216Z,26.81
2022-07-29T12:01:07.250Z,26.65
2022-07-29T12:04:10.478Z,26.58
2022-07-29T12:07:15.685Z,26.65
2022-07-29T12:10:19.881Z,26.74
2022-07-29T12:13:37.169Z,27.17
2022-07-29T12:16:40.597Z,27.10
2022-07-29T12:19:46.040Z,27.06
2022-07-29T12:22:50.285Z,26.88
2022-07-29T12:25:53.067Z,26.65
2022-07-29T12:28:57.004Z,26.69
2022-07-29T12:32:00.270Z,26.27
2022-07-29T12:35:06.410Z,26.19
2022-07-29T12:38:12.115Z,26.18
2022-07-29T12:41:14.761Z,26.20
2022-07-29T12:44:17.393Z,26.31
2022-07-29T12:47:21.462Z,26.81
2022-07-29T12:50:26.547Z,27.45
2022-07-29T12:53:30.877Z,27.79
2022-07-29T12:56:42.755Z,28.58
2022-07-29T12:59:46.117Z,29.08
2022-07-29T13:02:57.269Z,29.42
2022-07-29T13:05:59.843Z,29.37
2022-07-29T13:09:07.957Z,29.75
2022-07-29T13:12:11.933Z,29.59
2022-07-29T13:15:15.954Z,30.08
2022-07-29T13:18:32.953Z,29.90
2022-07-29T13:21:35.848Z,29.52
2022-07-29T13:24:50.279Z,29.27
2022-07-29T13:27:55.180Z,29.88
2022-07-29T13:30:57.800Z,30.17
2022-07-29T13:34:00.440Z,30.31
2022-07-29T13:37:03.073Z,30.35
2022-07-29T13:40:08.814Z,29.92
2022-07-29T13:43:11.506Z,30.05
2022-07-29T13:46:14.160Z,29.62
2022-07-29T13:49:17.027Z,29.38
2022-07-29T13:52:19.629Z,29.30
2022-07-29T13:55:23.575Z,28.79
2022-07-29T13:58:26.224Z,28.74
2022-07-29T14:01:31.263Z,28.50
2022-07-29T14:04:34.363Z,28.64
2022-07-29T14:07:37.186Z,28.59
2022-07-29T14:10:41.088Z,28.58
2022-07-29T14:13:43.706Z,28.27
2022-07-29T14:16:49.144Z,28.09
2022-07-29T14:19:54.893Z,27.98
2022-07-29T14:22:58.235Z,27.73
2022-07-29T14:26:02.342Z,27.88
2022-07-29T14:29:05.154Z,27.71
2022-07-29T14:32:08.624Z,27.44
2022-07-29T14:35:11.450Z,27.24
2022-07-29T14:38:14.893Z,27.18
2022-07-29T14:41:18.868Z,26.81
2022-07-29T14:44:21.495Z,26.67
2022-07-29T14:47:24.273Z,26.52
2022-07-29T14:50:31.592Z,25.97
2022-07-29T14:53:34.879Z,26.20
2022-07-29T14:56:46.516Z,26.07
2022-07-29T14:59:49.736Z,26.13
2022-07-29T15:03:01.903Z,25.95
2022-07-29T15:06:05.494Z,25.77
2022-07-29T15:09:08.103Z,25.77
2022-07-29T15:12:12.339Z,25.58
2022-07-29T15:15:15.063Z,25.40
2022-07-29T15:18:25.576Z,25.43
2022-07-29T15:21:28.599Z,25.31
2022-07-29T15:24:31.237Z,25.12
2022-07-29T15:27:35.222Z,24.96
2022-07-29T15:30:41.628Z,24.89
2022-07-29T15:33:44.339Z,24.98
2022-07-29T15:36:52.611Z,24.94
2022-07-29T15:39:59.993Z,24.91
2022-07-29T15:43:07.005Z,24.85
2022-07-29T15:46:27.068Z,24.89
2022-07-29T15:49:48.178Z,24.85
2022-07-29T15:52:52.066Z,25.00
2022-07-29T15:55:54.652Z,24.89
2022-07-29T15:58:58.822Z,24.92
2022-07-29T16:02:02.935Z,24.85
2022-07-29T16:05:09.272Z,24.65
2022-07-29T16:08:12.587Z,24.68
2022-07-29T16:11:15.237Z,24.58
2022-07-29T16:14:19.271Z,24.52
2022-07-29T16:17:22.133Z,24.49
2022-07-29T16:20:25.351Z,24.52
2022-07-29T16:23:28.000Z,24.48
2022-07-29T16:26:31.833Z,24.39
2022-07-29T16:29:36.936Z,24.41
2022-07-29T16:32:40.168Z,24.50
2022-07-29T16:35:42.713Z,24.52
2022-07-29T16:38:47.233Z,24.49
2022-07-29T16:41:50.198Z,24.37
2022-07-29T16:44:54.150Z,24.32
2022-07-29T16:48:00.362Z,24.27
2022-07-29T16:51:04.557Z,24.31
2022-07-29T16:54:08.628Z,24.10
2022-07-29T16:57:11.803Z,24.18
2022-07-29T17:00:17.524Z,24.06
2022-07-29T17:03:20.463Z,24.14
2022-07-29T17:06:23.032Z,24.00
2022-07-29T17:09:25.620Z,23.80
2022-07-29T17:12:28.490Z,23.88
2022-07-29T17:15:32.428Z,23.87
2022-07-29T17:18:39.114Z,23.74
2022-07-29T17:21:49.101Z,23.60
2022-07-29T17:24:52.311Z,23.56
2022-07-29T17:28:00.596Z,23.36
2022-07-29T17:31:05.000Z,23.47
2022-07-29T17:34:08.665Z,23.32
2022-07-29T17:37:12.649Z,23.24
2022-07-29T17:40:15.297Z,23.19
2022-07-29T17:43:17.943Z,23.19
2022-07-29T17:46:24.682Z,23.08
2022-07-29T17:49:28.093Z,23.05
2022-07-29T17:52:31.074Z,23.06
2022-07-29T17:55:33.690Z,22.99
2022-07-29T17:58:36.672Z,22.87
2022-07-29T18:01:41.400Z,22.78
2022-07-29T18:04:44.056Z,22.75
2022-07-29T18:07:46.689Z,22.55
2022-07-29T18:10:49.371Z,22.55
2022-07-29T18:13:52.060Z,22.50
2022-07-29T18:16:56.411Z,22.30
2022-07-29T18:19:59.272Z,22.38
2022-07-29T18:23:02.405Z,22.26
2022-07-29T18:26:05.546Z,22.39
2022-07-29T18:29:09.279Z,22.26
2022-07-29T18:32:14.769Z,22.13
2022-07-29T18:35:17.497Z,22.04
2022-07-29T18:38:21.799Z,21.95
2022-07-29T18:41:24.371Z,22.04
2022-07-29T18:44:26.923Z,22.08
2022-07-29T18:47:32.201Z,21.94
2022-07-29T18:50:35.425Z,21.93
2022-07-29T18:53:38.454Z,21.97
2022-07-29T18:56:41.124Z,21.80
2022-07-29T18:59:43.780Z,21.82
2022-07-29T19:02:47.799Z,21.70
2022-07-29T19:05:50.571Z,21.39
2022-07-29T19:08:53.281Z,21.49
2022-07-29T19:11:57.960Z,21.43
2022-07-29T19:15:03.037Z,21.45
2022-07-29T19:18:07.155Z,21.29
2022-07-29T19:21:09.951Z,21.61
2022-07-29T19:24:15.549Z,21.45
2022-07-29T19:27:18.849Z,21.55
2022-07-29T19:30:21.575Z,21.46
2022-07-29T19:33:25.505Z,21.35
2022-07-29T19:36:28.201Z,21.42
2022-07-29T19:39:35.036Z,21.22
2022-07-29T19:42:38.244Z,21.30
2022-07-29T19:45:41.059Z,21.09
2022-07-29T19:48:45.147Z,20.91
2022-07-29T19:51:47.813Z,20.84
2022-07-29T19:54:50.550Z,20.90
2022-07-29T19:57:53.688Z,20.94
2022-07-29T20:00:56.287Z,20.93
2022-07-29T20:04:00.243Z,20.76
2022-07-29T20:07:02.906Z,20.70
2022-07-29T20:10:07.166Z,20.62
2022-07-29T20:13:09.948Z,20.76
2022-07-29T20:16:12.719Z,20.54
2022-07-29T20:19:17.236Z,20.54
2022-07-29T20:22:21.238Z,20.55
2022-07-29T20:25:24.334Z,20.54
2022-07-29T20:28:26.874Z,20.57
2022-07-29T20:31:30.499Z,20.32
2022-07-29T20:34:34.684Z,20.33
2022-07-29T20:37:52.218Z,20.34
2022-07-29T20:40:59.441Z,20.00
2022-07-29T20:44:02.276Z,20.25
2022-07-29T20:47:04.998Z,20.25
2022-07-29T20:50:10.877Z,20.26
2022-07-29T20:53:13.555Z,20.22
2022-07-29T20:56:16.366Z,20.25
2022-07-29T20:59:18.959Z,20.19
2022-07-29T21:02:21.572Z,20.20
2022-07-29T21:05:25.579Z,20.21
2022-07-29T21:08:28.702Z,20.14
2022-07-29T21:11:43.730Z,20.15
2022-07-29T21:14:48.408Z,20.09
2022-07-29T21:17:59.333Z,20.02
2022-07-29T21:21:05.103Z,20.02
2022-07-29T21:24:08.997Z,19.97
2022-07-29T21:27:32.845Z,19.88
2022-07-29T21:30:36.653Z,20.12
2022-07-29T21:33:40.730Z,19.98
2022-07-29T21:36:48.183Z,19.99
2022-07-29T21:39:51.236Z,19.97
2022-07-29T21:42:53.887Z,19.97
2022-07-29T21:45:56.740Z,19.90
2022-07-29T21:48:59.385Z,19.96
2022-07-29T21:52:03.544Z,19.96
2022-07-29T21:55:07.104Z,19.88
2022-07-29T21:58:11.008Z,19.88
2022-07-29T22:01:13.721Z,19.89
2022-07-29T22:04:16.739Z,19.89
2022-07-29T22:07:20.859Z,19.80
2022-07-29T22:10:24.332Z,19.81
2022-07-29T22:13:26.921Z,19.84
2022-07-29T22:16:29.609Z,19.73
2022-07-29T22:19:32.211Z,19.82
2022-07-29T22:22:36.278Z,19.73
2022-07-29T22:25:38.936Z,19.83
2022-07-29T22:28:41.527Z,19.74
2022-07-29T22:31:44.234Z,19.79
2022-07-29T22:34:47.028Z,19.78
2022-07-29T22:37:51.072Z,19.75
2022-07-29T22:40:53.668Z,19.71
2022-07-29T22:44:03.263Z,19.71
2022-07-29T22:47:06.168Z,19.68
2022-07-29T22:50:09.601Z,19.59
2022-07-29T22:53:13.608Z,19.49
2022-07-29T22:56:16.493Z,19.45
2022-07-29T22:59:19.293Z,19.43
2022-07-29T23:02:21.850Z,19.38
2022-07-29T23:05:24.476Z,19.42
2022-07-29T23:08:28.463Z,19.39
2022-07-29T23:11:31.118Z,19.31
2022-07-29T23:14:33.674Z,19.22
2022-07-29T23:17:37.013Z,19.18
2022-07-29T23:20:39.726Z,19.12
2022-07-29T23:23:45.602Z,19.08
2022-07-29T23:26:48.275Z,19.11
2022-07-29T23:29:50.872Z,19.08
2022-07-29T23:32:53.488Z,19.09
2022-07-29T23:35:56.113Z,19.09
2022-07-29T23:39:00.072Z,19.02
2022-07-29T23:42:03.673Z,18.96
2022-07-29T23:45:07.047Z,18.97
2022-07-29T23:48:09.638Z,18.96
2022-07-29T23:51:12.389Z,18.94
2022-07-29T23:54:16.362Z,18.91
2022-07-29T23:57:22.692Z,18.93
